Time,TemperatureF,DewpointF,PressureIn,WindDirection,WindDirectionDegrees,WindSpeedMPH,WindSpeedGustMPH,Humidity,HourlyPrecipIn,Conditions,Clouds,dailyrainin,SoftwareType,DateUTC
2013-03-15 00:03:00,22.0,10.0,29.76,NW,321,0.0,1.0,58,0.00,,,0.00,,2013-03-15 04:03:00,
2013-03-15 00:12:00,22.0,10.0,29.76,NW,321,0.0,1.0,58,0.00,,,0.00,,2013-03-15 04:12:00,
2013-03-15 00:23:00,22.0,10.0,29.76,NW,322,0.0,3.0,59,0.00,,,0.00,,2013-03-15 04:23:00,
2013-03-15 00:32:00,22.0,13.0,29.76,WNW,296,2.0,5.0,69,0.00,,,0.00,,2013-03-15 04:32:00,
2013-03-15 00:43:00,22.0,13.0,29.76,WNW,296,2.0,5.0,69,0.00,,,0.00,,2013-03-15 04:43:00,
2013-03-15 00:53:00,22.0,16.0,29.76,WNW,300,0.0,3.0,77,0.00,,,0.00,,2013-03-15 04:53:00,
2013-03-15 01:02:00,21.0,14.0,29.76,NW,322,0.0,3.0,75,0.00,,,0.00,,2013-03-15 05:02:00,
2013-03-15 01:12:00,21.0,14.0,29.76,NW,322,0.0,3.0,75,0.00,,,0.00,,2013-03-15 05:12:00,
2013-03-15 01:22:00,21.0,14.0,29.76,West,278,1.0,3.0,75,0.00,,,0.00,,2013-03-15 05:22:00,
2013-03-15 01:32:00,22.0,15.0,29.76,NNW,329,0.0,2.0,75,0.00,,,0.00,,2013-03-15 05:32:00,
2013-03-15 01:42:00,22.0,15.0,29.76,NNW,329,0.0,2.0,75,0.00,,,0.00,,2013-03-15 05:42:00,
2013-03-15 01:52:00,22.0,14.0,29.76,WNW,292,1.0,3.0,72,0.00,,,0.00,,2013-03-15 05:52:00,
2013-03-15 02:02:00,22.0,13.0,29.76,West,263,1.0,6.0,69,0.00,,,0.00,,2013-03-15 06:02:00,
2013-03-15 02:12:00,22.0,13.0,29.76,West,263,1.0,6.0,69,0.00,,,0.00,,2013-03-15 06:12:00,
2013-03-15 02:22:00,23.0,14.0,29.77,WNW,293,1.0,4.0,68,0.00,,,0.00,,2013-03-15 06:22:00,
2013-03-15 02:32:00,22.0,12.0,29.77,WSW,238,2.0,5.0,65,0.00,,,0.00,,2013-03-15 06:32:00,
2013-03-15 02:42:00,22.0,12.0,29.77,WSW,238,2.0,5.0,65,0.00,,,0.00,,2013-03-15 06:42:00,
2013-03-15 02:53:00,22.0,12.0,29.76,NNW,335,1.0,7.0,65,0.00,,,0.00,,2013-03-15 06:53:00,
2013-03-15 03:02:00,22.0,12.0,29.76,NW,319,1.0,3.0,65,0.00,,,0.00,,2013-03-15 07:02:00,
2013-03-15 03:12:00,22.0,12.0,29.76,NW,319,1.0,3.0,65,0.00,,,0.00,,2013-03-15 07:12:00,
2013-03-15 03:22:00,22.0,12.0,29.76,NNW,334,1.0,7.0,64,0.00,,,0.00,,2013-03-15 07:22:00,
2013-03-15 03:32:00,22.0,11.0,29.76,West,271,1.0,7.0,62,0.00,,,0.00,,2013-03-15 07:32:00,
2013-03-15 03:42:00,22.0,11.0,29.76,West,271,1.0,7.0,62,0.00,,,0.00,,2013-03-15 07:42:00,
2013-03-15 03:52:00,22.0,11.0,29.76,NW,304,2.0,4.0,61,0.00,,,0.00,,2013-03-15 07:52:00,
2013-03-15 04:02:00,22.0,11.0,29.75,West,275,1.0,7.0,61,0.00,,,0.00,,2013-03-15 08:02:00,
2013-03-15 04:12:00,22.0,11.0,29.75,West,275,1.0,7.0,61,0.00,,,0.00,,2013-03-15 08:12:00,
2013-03-15 04:23:00,22.0,11.0,29.75,NW,312,0.0,5.0,61,0.00,,,0.00,,2013-03-15 08:23:00,
2013-03-15 04:33:00,22.0,10.0,29.75,NW,313,1.0,10.0,59,0.00,,,0.00,,2013-03-15 08:33:00,
2013-03-15 04:42:00,22.0,10.0,29.75,NW,313,1.0,10.0,59,0.00,,,0.00,,2013-03-15 08:42:00,
2013-03-15 04:52:00,21.0,9.0,29.75,WNW,292,3.0,4.0,58,0.00,,,0.00,,2013-03-15 08:52:00,
2013-03-15 05:02:00,22.0,10.0,29.75,NNW,348,3.0,9.0,58,0.00,,,0.00,,2013-03-15 09:02:00,
2013-03-15 05:12:00,22.0,10.0,29.75,NNW,348,3.0,9.0,58,0.00,,,0.00,,2013-03-15 09:12:00,
2013-03-15 05:22:00,21.0,9.0,29.76,NW,319,2.0,12.0,58,0.00,,,0.00,,2013-03-15 09:22:00,
2013-03-15 05:33:00,21.0,9.0,29.76,West,274,1.0,5.0,58,0.00,,,0.00,,2013-03-15 09:33:00,
2013-03-15 05:43:00,21.0,9.0,29.76,West,274,1.0,5.0,58,0.00,,,0.00,,2013-03-15 09:43:00,
2013-03-15 05:53:00,21.0,9.0,29.76,NW,319,2.0,5.0,58,0.00,,,0.00,,2013-03-15 09:53:00,
2013-03-15 06:03:00,21.0,9.0,29.76,NNW,327,1.0,4.0,60,0.00,,,0.00,,2013-03-15 10:03:00,
2013-03-15 06:12:00,21.0,9.0,29.76,NNW,327,1.0,4.0,60,0.00,,,0.00,,2013-03-15 10:12:00,
2013-03-15 06:23:00,21.0,9.0,29.76,NW,325,1.0,3.0,59,0.00,,,0.00,,2013-03-15 10:23:00,
2013-03-15 06:33:00,21.0,9.0,29.77,SW,217,2.0,7.0,58,0.00,,,0.00,,2013-03-15 10:33:00,
2013-03-15 06:42:00,21.0,9.0,29.77,SW,217,2.0,7.0,58,0.00,,,0.00,,2013-03-15 10:42:00,
2013-03-15 06:52:00,21.0,9.0,29.77,NNW,329,1.0,3.0,58,0.00,,,0.00,,2013-03-15 10:52:00,
2013-03-15 07:03:00,21.0,9.0,29.78,NW,304,0.0,2.0,58,0.00,,,0.00,,2013-03-15 11:03:00,
2013-03-15 07:12:00,21.0,9.0,29.78,NW,304,0.0,2.0,58,0.00,,,0.00,,2013-03-15 11:12:00,
2013-03-15 07:23:00,21.0,9.0,29.78,NW,315,0.0,4.0,58,0.00,,,0.00,,2013-03-15 11:23:00,
2013-03-15 07:32:00,21.0,8.0,29.77,NW,317,1.0,3.0,57,0.00,,,0.00,,2013-03-15 11:32:00,
2013-03-15 07:42:00,21.0,8.0,29.77,NW,317,1.0,3.0,57,0.00,,,0.00,,2013-03-15 11:42:00,
2013-03-15 07:52:00,21.0,8.0,29.78,West,277,0.0,2.0,57,0.00,,,0.00,,2013-03-15 11:52:00,
2013-03-15 08:02:00,21.0,7.0,29.78,West,281,0.0,2.0,55,0.00,,,0.00,,2013-03-15 12:02:00,
2013-03-15 08:12:00,21.0,6.0,29.78,ENE,61,1.0,4.0,52,0.00,,,0.00,,2013-03-15 12:12:00,
2013-03-15 08:23:00,21.0,6.0,29.78,ENE,61,1.0,4.0,52,0.00,,,0.00,,2013-03-15 12:23:00,
2013-03-15 08:32:00,22.0,5.0,29.77,NW,311,4.0,9.0,48,0.00,,,0.00,,2013-03-15 12:32:00,
2013-03-15 08:42:00,22.0,5.0,29.77,NW,311,4.0,9.0,48,0.00,,,0.00,,2013-03-15 12:42:00,
2013-03-15 08:52:00,23.0,6.0,29.78,SW,236,1.0,6.0,48,0.00,,,0.00,,2013-03-15 12:52:00,
2013-03-15 09:02:00,23.0,5.0,29.79,NW,309,1.0,11.0,46,0.00,,,0.00,,2013-03-15 13:02:00,
2013-03-15 09:12:00,23.0,5.0,29.79,NW,309,1.0,11.0,46,0.00,,,0.00,,2013-03-15 13:12:00,
2013-03-15 09:22:00,24.0,6.0,29.79,West,276,3.0,3.0,46,0.00,,,0.00,,2013-03-15 13:22:00,
2013-03-15 09:32:00,24.0,6.0,29.79,WNW,286,1.0,3.0,45,0.00,,,0.00,,2013-03-15 13:32:00,
2013-03-15 09:42:00,24.0,6.0,29.79,WNW,286,1.0,3.0,45,0.00,,,0.00,,2013-03-15 13:42:00,
2013-03-15 09:53:00,24.0,4.0,29.79,WNW,301,2.0,10.0,42,0.00,,,0.00,,2013-03-15 13:53:00,
2013-03-15 10:02:00,25.0,5.0,29.78,NW,326,1.0,7.0,41,0.00,,,0.00,,2013-03-15 14:02:00,
2013-03-15 10:12:00,25.0,5.0,29.78,NW,326,1.0,7.0,41,0.00,,,0.00,,2013-03-15 14:12:00,
2013-03-15 10:22:00,27.0,7.0,29.78,WSW,255,3.0,5.0,42,0.00,,,0.00,,2013-03-15 14:22:00,
2013-03-15 10:32:00,28.0,7.0,29.78,NW,312,2.0,5.0,41,0.00,,,0.00,,2013-03-15 14:32:00,
2013-03-15 10:42:00,28.0,7.0,29.78,NW,312,2.0,5.0,41,0.00,,,0.00,,2013-03-15 14:42:00,
2013-03-15 10:53:00,29.0,7.0,29.77,WSW,242,3.0,5.0,38,0.00,,,0.00,,2013-03-15 14:53:00,
2013-03-15 11:02:00,29.0,5.0,29.76,SW,229,2.0,6.0,35,0.00,,,0.00,,2013-03-15 15:02:00,
2013-03-15 11:13:00,29.0,5.0,29.76,SW,229,2.0,6.0,35,0.00,,,0.00,,2013-03-15 15:13:00,
2013-03-15 11:23:00,30.0,4.0,29.76,WSW,240,6.0,6.0,32,0.00,,,0.00,,2013-03-15 15:23:00,
2013-03-15 11:33:00,31.0,5.0,29.75,West,261,3.0,4.0,32,0.00,,,0.00,,2013-03-15 15:33:00,
2013-03-15 11:42:00,30.0,6.0,29.75,West,276,2.0,6.0,35,0.00,,,0.00,,2013-03-15 15:42:00,
2013-03-15 11:53:00,30.0,6.0,29.75,West,276,2.0,6.0,35,0.00,,,0.00,,2013-03-15 15:53:00,
2013-03-15 12:03:00,31.0,7.0,29.74,WSW,238,4.0,9.0,35,0.00,,,0.00,,2013-03-15 16:03:00,
2013-03-15 12:12:00,31.0,8.0,29.73,WSW,250,4.0,8.0,37,0.00,,,0.00,,2013-03-15 16:12:00,
2013-03-15 12:23:00,31.0,8.0,29.73,WSW,250,4.0,8.0,37,0.00,,,0.00,,2013-03-15 16:23:00,
2013-03-15 12:32:00,33.0,8.0,29.72,WSW,244,4.0,7.0,34,0.00,,,0.00,,2013-03-15 16:32:00,
2013-03-15 12:42:00,33.0,8.0,29.72,WSW,244,4.0,7.0,34,0.00,,,0.00,,2013-03-15 16:42:00,
2013-03-15 12:52:00,33.0,8.0,29.72,WSW,258,4.0,10.0,35,0.00,,,0.00,,2013-03-15 16:52:00,
2013-03-15 13:02:00,34.0,11.0,29.71,WSW,238,5.0,7.0,38,0.00,,,0.00,,2013-03-15 17:02:00,
2013-03-15 13:12:00,34.0,11.0,29.71,WSW,238,5.0,7.0,38,0.00,,,0.00,,2013-03-15 17:12:00,
2013-03-15 13:22:00,33.0,10.0,29.70,WNW,283,1.0,6.0,38,0.00,,,0.00,,2013-03-15 17:22:00,
2013-03-15 13:32:00,34.0,11.0,29.69,SSW,213,4.0,6.0,38,0.00,,,0.00,,2013-03-15 17:32:00,
2013-03-15 13:42:00,34.0,11.0,29.69,SSW,213,4.0,6.0,38,0.00,,,0.00,,2013-03-15 17:42:00,
2013-03-15 13:53:00,35.0,12.0,29.67,WSW,251,2.0,7.0,38,0.00,,,0.00,,2013-03-15 17:53:00,
2013-03-15 14:02:00,36.0,12.0,29.66,SW,224,5.0,8.0,36,0.00,,,0.00,,2013-03-15 18:02:00,
2013-03-15 14:12:00,36.0,12.0,29.66,SW,224,5.0,8.0,36,0.00,,,0.00,,2013-03-15 18:12:00,
2013-03-15 14:22:00,35.0,11.0,29.66,WSW,255,2.0,6.0,37,0.00,,,0.00,,2013-03-15 18:22:00,
2013-03-15 14:32:00,37.0,12.0,29.64,SW,232,3.0,5.0,35,0.00,,,0.00,,2013-03-15 18:32:00,
2013-03-15 14:42:00,37.0,12.0,29.64,SW,232,3.0,5.0,35,0.00,,,0.00,,2013-03-15 18:42:00,
2013-03-15 14:52:00,38.0,13.0,29.63,SW,235,6.0,8.0,35,0.00,,,0.00,,2013-03-15 18:52:00,
2013-03-15 15:02:00,39.0,16.0,29.62,SW,223,4.0,6.0,38,0.00,,,0.00,,2013-03-15 19:02:00,
2013-03-15 15:12:00,39.0,16.0,29.62,SW,223,4.0,6.0,38,0.00,,,0.00,,2013-03-15 19:12:00,
2013-03-15 15:22:00,38.0,13.0,29.62,WSW,243,6.0,7.0,35,0.00,,,0.00,,2013-03-15 19:22:00,
2013-03-15 15:32:00,39.0,14.0,29.61,West,281,4.0,8.0,35,0.00,,,0.00,,2013-03-15 19:32:00,
2013-03-15 15:42:00,39.0,14.0,29.61,West,281,4.0,8.0,35,0.00,,,0.00,,2013-03-15 19:42:00,
2013-03-15 15:52:00,39.0,14.0,29.60,SW,219,4.0,7.0,36,0.00,,,0.00,,2013-03-15 19:52:00,
2013-03-15 16:02:00,38.0,15.0,29.60,WSW,238,5.0,8.0,38,0.00,,,0.00,,2013-03-15 20:02:00,
2013-03-15 16:12:00,38.0,15.0,29.60,WSW,238,5.0,8.0,38,0.00,,,0.00,,2013-03-15 20:12:00,
2013-03-15 16:22:00,38.0,18.0,29.59,SW,229,5.0,10.0,43,0.00,,,0.00,,2013-03-15 20:22:00,
2013-03-15 16:32:00,38.0,19.0,29.58,West,267,8.0,10.0,46,0.00,,,0.00,,2013-03-15 20:32:00,
2013-03-15 16:42:00,38.0,19.0,29.58,West,267,8.0,10.0,46,0.00,,,0.00,,2013-03-15 20:42:00,
2013-03-15 16:52:00,37.0,20.0,29.59,WNW,287,6.0,8.0,49,0.00,,,0.00,,2013-03-15 20:52:00,
2013-03-15 17:02:00,37.0,21.0,29.59,NW,304,4.0,10.0,53,0.00,,,0.00,,2013-03-15 21:02:00,
2013-03-15 17:12:00,37.0,21.0,29.59,NW,304,4.0,10.0,53,0.00,,,0.00,,2013-03-15 21:12:00,
2013-03-15 17:22:00,36.0,23.0,29.58,SW,230,5.0,11.0,58,0.00,,,0.00,,2013-03-15 21:22:00,
2013-03-15 17:33:00,36.0,23.0,29.59,WSW,239,2.0,11.0,59,0.00,,,0.00,,2013-03-15 21:33:00,
2013-03-15 17:43:00,36.0,23.0,29.59,WSW,239,2.0,11.0,59,0.00,,,0.00,,2013-03-15 21:43:00,
2013-03-15 17:53:00,36.0,23.0,29.58,WSW,238,3.0,6.0,59,0.00,,,0.00,,2013-03-15 21:53:00,
2013-03-15 18:03:00,36.0,24.0,29.58,WSW,240,4.0,9.0,61,0.00,,,0.00,,2013-03-15 22:03:00,
2013-03-15 18:14:00,36.0,24.0,29.58,WSW,240,4.0,9.0,61,0.00,,,0.00,,2013-03-15 22:14:00,
2013-03-15 18:22:00,36.0,24.0,29.57,West,279,2.0,6.0,61,0.00,,,0.00,,2013-03-15 22:22:00,
2013-03-15 18:32:00,36.0,24.0,29.57,SW,225,3.0,5.0,62,0.00,,,0.00,,2013-03-15 22:32:00,
2013-03-15 18:42:00,36.0,24.0,29.57,SW,225,3.0,5.0,62,0.00,,,0.00,,2013-03-15 22:42:00,
2013-03-15 18:53:00,36.0,25.0,29.57,WSW,240,4.0,10.0,63,0.00,,,0.00,,2013-03-15 22:53:00,
2013-03-15 19:02:00,36.0,25.0,29.58,WSW,240,3.0,4.0,64,0.00,,,0.00,,2013-03-15 23:02:00,
2013-03-15 19:12:00,36.0,25.0,29.58,WSW,240,3.0,4.0,64,0.00,,,0.00,,2013-03-15 23:12:00,
2013-03-15 19:22:00,35.0,25.0,29.58,West,261,2.0,10.0,66,0.00,,,0.00,,2013-03-15 23:22:00,
2013-03-15 19:32:00,35.0,25.0,29.59,WSW,246,2.0,5.0,67,0.00,,,0.00,,2013-03-15 23:32:00,
2013-03-15 19:42:00,35.0,25.0,29.59,WSW,246,2.0,5.0,67,0.00,,,0.00,,2013-03-15 23:42:00,
2013-03-15 19:53:00,35.0,26.0,29.59,West,269,4.0,7.0,69,0.00,,,0.00,,2013-03-15 23:53:00,
2013-03-15 20:03:00,34.0,26.0,29.59,SW,234,3.0,4.0,71,0.00,,,0.00,,2013-03-16 00:03:00,
2013-03-15 20:12:00,34.0,26.0,29.59,SW,234,3.0,4.0,71,0.00,,,0.00,,2013-03-16 00:12:00,
2013-03-15 20:22:00,34.0,26.0,29.59,WSW,254,3.0,7.0,73,0.00,,,0.00,,2013-03-16 00:22:00,
2013-03-15 20:32:00,34.0,27.0,29.60,SW,225,5.0,8.0,75,0.00,,,0.00,,2013-03-16 00:32:00,
2013-03-15 20:42:00,34.0,27.0,29.60,SW,225,5.0,8.0,75,0.00,,,0.00,,2013-03-16 00:42:00,
2013-03-15 20:52:00,33.0,26.0,29.60,WSW,243,3.0,6.0,76,0.00,,,0.00,,2013-03-16 00:52:00,
2013-03-15 21:02:00,33.0,27.0,29.60,West,263,2.0,4.0,77,0.00,,,0.00,,2013-03-16 01:02:00,
2013-03-15 21:12:00,33.0,27.0,29.60,West,263,2.0,4.0,77,0.00,,,0.00,,2013-03-16 01:12:00,
2013-03-15 21:22:00,33.0,27.0,29.60,SW,234,3.0,5.0,79,0.00,,,0.00,,2013-03-16 01:22:00,
2013-03-15 21:32:00,33.0,27.0,29.60,WSW,243,1.0,3.0,79,0.00,,,0.00,,2013-03-16 01:32:00,
2013-03-15 21:42:00,33.0,27.0,29.60,WSW,243,1.0,3.0,79,0.00,,,0.00,,2013-03-16 01:42:00,
2013-03-15 21:53:00,33.0,27.0,29.59,SW,222,1.0,4.0,79,0.00,,,0.00,,2013-03-16 01:53:00,
2013-03-15 22:02:00,32.0,26.0,29.59,WSW,237,2.0,3.0,79,0.00,,,0.00,,2013-03-16 02:02:00,
2013-03-15 22:12:00,32.0,26.0,29.59,WSW,237,2.0,3.0,79,0.00,,,0.00,,2013-03-16 02:12:00,
2013-03-15 22:23:00,33.0,27.0,29.60,WSW,240,2.0,4.0,78,0.00,,,0.00,,2013-03-16 02:23:00,
2013-03-15 22:32:00,33.0,27.0,29.60,SW,215,2.0,4.0,78,0.00,,,0.00,,2013-03-16 02:32:00,
2013-03-15 22:42:00,33.0,27.0,29.60,SW,215,2.0,4.0,78,0.00,,,0.00,,2013-03-16 02:42:00,
2013-03-15 22:52:00,33.0,27.0,29.60,SSW,196,2.0,4.0,78,0.00,,,0.00,,2013-03-16 02:52:00,
2013-03-15 23:02:00,33.0,29.0,29.61,WSW,254,4.0,5.0,84,0.00,,,0.00,,2013-03-16 03:02:00,
2013-03-15 23:12:00,33.0,29.0,29.61,WSW,254,4.0,5.0,84,0.00,,,0.00,,2013-03-16 03:12:00,
2013-03-15 23:22:00,32.0,28.0,29.61,WSW,253,2.0,4.0,85,0.00,,,0.00,,2013-03-16 03:22:00,
2013-03-15 23:32:00,32.0,27.0,29.62,SW,232,4.0,8.0,81,0.00,,,0.00,,2013-03-16 03:32:00,
2013-03-15 23:43:00,32.0,27.0,29.62,SW,232,4.0,8.0,81,0.00,,,0.00,,2013-03-16 03:43:00,
2013-03-15 23:53:00,32.0,26.0,29.62,West,273,2.0,4.0,78,0.00,,,0.00,,2013-03-16 03:53:00,